createdAt,value
2023-04-06T00:04:17.956Z,100842.94
2023-04-06T00:09:15.251Z,100890.75
2023-04-06T00:14:12.201Z,100862.06
2023-04-06T00:19:09.369Z,100824.41
2023-04-06T00:24:07.417Z,100914.41
2023-04-06T00:29:04.368Z,100881.03
2023-04-06T00:34:01.207Z,100899.94
2023-04-06T00:38:58.261Z,100876.06
2023-04-06T00:43:56.114Z,100876.22
2023-04-06T00:48:53.146Z,100836.09
2023-04-06T00:53:50.103Z,100880.38
2023-04-06T00:58:47.448Z,100861.94
2023-04-06T01:03:49.309Z,100886.59
2023-04-06T01:08:48.058Z,100883.28
2023-04-06T01:13:49.979Z,100846.38
2023-04-06T01:18:56.573Z,100873.13
2023-04-06T01:23:59.134Z,100869.94
2023-04-06T01:29:04.325Z,100810.53
2023-04-06T01:34:01.502Z,100829.31
2023-04-06T01:38:59.368Z,100842.47
2023-04-06T01:44:03.585Z,100833.50
2023-04-06T01:49:02.355Z,100838.19
2023-04-06T01:54:08.285Z,100828.47
2023-04-06T01:59:20.556Z,100795.69
2023-04-06T02:04:17.785Z,100764.13
2023-04-06T02:09:18.172Z,100820.28
2023-04-06T02:14:15.512Z,100799.28
2023-04-06T02:19:18.842Z,100728.38
2023-04-06T02:24:15.856Z,100811.06
2023-04-06T02:29:13.710Z,100773.59
2023-04-06T02:34:12.488Z,100742.66
2023-04-06T02:39:13.344Z,100803.19
2023-04-06T02:44:10.429Z,100804.88
2023-04-06T02:49:12.513Z,100777.41
2023-04-06T02:54:10.435Z,100807.28
2023-04-06T02:59:07.632Z,100803.66
2023-04-06T03:04:04.827Z,100767.06
2023-04-06T03:09:03.469Z,100771.16
2023-04-06T03:14:02.530Z,100811.22
2023-04-06T03:18:59.707Z,100787.97
2023-04-06T03:23:57.004Z,100783.47
2023-04-06T03:28:58.077Z,100782.63
2023-04-06T03:34:00.261Z,100767.00
2023-04-06T03:39:01.763Z,100725.41
2023-04-06T03:44:02.363Z,100764.31
2023-04-06T03:49:01.194Z,100801.88
2023-04-06T03:53:59.753Z,100800.97
2023-04-06T03:58:57.057Z,100758.06
2023-04-06T04:03:55.431Z,100798.19
2023-04-06T04:08:52.466Z,100767.56
2023-04-06T04:13:49.607Z,100780.09
2023-04-06T04:18:48.528Z,100808.16
2023-04-06T04:23:49.166Z,100812.38
2023-04-06T04:28:46.452Z,100809.56
2023-04-06T04:33:45.357Z,100765.91
2023-04-06T04:38:53.797Z,100781.03
2023-04-06T04:43:51.122Z,100779.84
2023-04-06T04:48:54.204Z,100784.75
2023-04-06T04:53:52.438Z,100817.19
2023-04-06T04:58:57.115Z,100724.16
2023-04-06T05:03:55.907Z,100782.47
2023-04-06T05:08:53.962Z,100716.28
2023-04-06T05:13:52.626Z,100794.09
2023-04-06T05:18:53.793Z,100758.59
2023-04-06T05:23:51.622Z,100811.78
2023-04-06T05:28:49.639Z,100789.41
2023-04-06T05:33:48.227Z,100793.84
2023-04-06T05:38:48.671Z,100711.41
2023-04-06T05:44:09.545Z,100708.09
2023-04-06T05:49:07.200Z,100775.19
2023-04-06T05:54:06.084Z,100784.63
2023-04-06T05:59:03.915Z,100775.81
2023-04-06T06:04:03.121Z,100779.19
2023-04-06T06:09:03.816Z,100777.78
2023-04-06T06:14:04.727Z,100762.38
2023-04-06T06:19:06.678Z,100749.44
2023-04-06T06:24:04.276Z,100766.75
2023-04-06T06:29:01.406Z,100739.59
2023-04-06T06:33:59.112Z,100755.66
2023-04-06T06:38:57.362Z,100730.00
2023-04-06T06:43:54.496Z,100663.25
2023-04-06T06:48:56.330Z,100761.38
2023-04-06T06:53:53.457Z,100710.66
2023-04-06T06:58:54.257Z,100782.84
2023-04-06T07:03:53.846Z,100767.22
2023-04-06T07:08:51.349Z,100776.50
2023-04-06T07:13:48.375Z,100774.97
2023-04-06T07:18:46.478Z,100769.13
2023-04-06T07:23:43.974Z,100732.56
2023-04-06T07:28:40.920Z,100753.75
2023-04-06T07:33:38.776Z,100774.34
2023-04-06T07:38:36.951Z,100757.75
2023-04-06T07:43:34.135Z,100730.88
2023-04-06T07:48:31.192Z,100768.47
2023-04-06T07:53:28.438Z,100730.97
2023-04-06T07:58:26.475Z,100755.88
2023-04-06T08:03:26.043Z,100748.44
2023-04-06T08:08:24.192Z,100736.41
2023-04-06T08:13:21.445Z,100758.50
2023-04-06T08:18:19.118Z,100681.78
2023-04-06T08:23:17.757Z,100706.28
2023-04-06T08:28:15.488Z,100712.59
2023-04-06T08:33:12.833Z,100702.53
2023-04-06T08:38:10.870Z,100764.50
2023-04-06T08:43:11.921Z,100735.31
2023-04-06T08:48:10.130Z,100661.22
2023-04-06T08:53:08.323Z,100722.84
2023-04-06T08:58:08.202Z,100759.53
2023-04-06T09:03:08.035Z,100762.25
2023-04-06T09:08:05.891Z,100731.75
2023-04-06T09:13:07.082Z,100686.94
2023-04-06T09:18:04.345Z,100740.28
2023-04-06T09:23:03.905Z,100653.22
2023-04-06T09:28:03.423Z,100703.94
2023-04-06T09:33:01.754Z,100743.13
2023-04-06T09:37:58.753Z,100755.44
2023-04-06T09:42:57.999Z,100747.63
2023-04-06T09:47:56.846Z,100727.19
2023-04-06T09:52:59.150Z,100689.34
2023-04-06T09:58:02.191Z,100724.50
2023-04-06T10:03:11.271Z,100756.84
2023-04-06T10:08:11.134Z,100755.84
2023-04-06T10:13:08.546Z,100744.44
2023-04-06T10:18:07.890Z,100734.34
2023-04-06T10:23:16.497Z,100694.72
2023-04-06T10:28:20.701Z,100665.63
2023-04-06T10:33:19.303Z,100734.94
2023-04-06T10:38:21.556Z,100733.31
2023-04-06T10:43:24.361Z,100647.34
2023-04-06T10:48:21.523Z,100695.63
2023-04-06T10:53:24.827Z,100682.88
2023-04-06T10:58:29.318Z,100671.06
2023-04-06T11:03:30.270Z,100685.59
2023-04-06T11:08:29.752Z,100673.06
2023-04-06T11:13:38.505Z,100712.75
2023-04-06T11:18:35.856Z,100674.66
2023-04-06T11:23:33.648Z,100710.22
2023-04-06T11:28:30.992Z,100646.91
2023-04-06T11:33:30.519Z,100674.00
2023-04-06T11:38:33.239Z,100670.94
2023-04-06T11:43:35.610Z,100611.91
2023-04-06T11:48:32.856Z,100661.53
2023-04-06T11:53:30.274Z,100652.38
2023-04-06T11:58:27.773Z,100638.75
2023-04-06T12:03:28.734Z,100681.91
2023-04-06T12:08:26.429Z,100650.81
2023-04-06T12:13:23.720Z,100687.91
2023-04-06T12:18:21.458Z,100599.44
2023-04-06T12:23:25.072Z,100654.78
2023-04-06T12:28:23.713Z,100660.72
2023-04-06T12:33:23.409Z,100678.31
2023-04-06T12:38:21.921Z,100579.91
2023-04-06T12:43:19.000Z,100625.06
2023-04-06T12:48:16.517Z,100583.53
2023-04-06T12:53:13.633Z,100663.00
2023-04-06T12:58:17.866Z,100571.56
2023-04-06T13:03:15.216Z,100630.94
2023-04-06T13:08:12.357Z,100569.66
2023-04-06T13:13:09.404Z,100610.44
2023-04-06T13:18:08.962Z,100546.75
2023-04-06T13:23:06.031Z,100631.06
2023-04-06T13:28:03.514Z,100618.41
2023-04-06T13:33:14.938Z,100608.88
2023-04-06T13:38:13.441Z,100557.97
2023-04-06T13:43:11.649Z,100605.72
2023-04-06T13:48:08.593Z,100612.38
2023-04-06T13:53:08.655Z,100562.91
2023-04-06T13:58:06.494Z,100577.59
2023-04-06T14:03:03.622Z,100616.81
2023-04-06T14:08:03.027Z,100562.34
2023-04-06T14:13:00.161Z,100617.47
2023-04-06T14:18:05.246Z,100620.69
2023-04-06T14:23:04.558Z,100561.22
2023-04-06T14:28:02.302Z,100617.50
2023-04-06T14:33:00.530Z,100578.47
2023-04-06T14:38:00.473Z,100609.63
2023-04-06T14:42:59.469Z,100602.56
2023-04-06T14:47:56.537Z,100589.13
2023-04-06T14:52:53.567Z,100599.88
2023-04-06T14:57:59.311Z,100517.16
2023-04-06T15:03:08.270Z,100538.34
2023-04-06T15:08:06.079Z,100615.03
2023-04-06T15:13:03.701Z,100619.91
2023-04-06T15:18:02.682Z,100568.50
2023-04-06T15:23:03.171Z,100598.41
2023-04-06T15:28:01.757Z,100596.88
2023-04-06T15:33:04.272Z,100592.59
2023-04-06T15:38:08.683Z,100580.66
2023-04-06T15:43:05.952Z,100531.50
2023-04-06T15:48:09.375Z,100590.53
2023-04-06T15:53:12.234Z,100605.50
2023-04-06T15:58:09.155Z,100630.50
2023-04-06T16:03:08.211Z,100652.63
2023-04-06T16:08:08.071Z,100615.38
2023-04-06T16:13:16.608Z,100601.06
2023-04-06T16:18:15.413Z,100633.09
2023-04-06T16:23:16.748Z,100636.13
2023-04-06T16:28:13.733Z,100589.31
2023-04-06T16:33:10.945Z,100644.69
2023-04-06T16:38:10.721Z,100630.84
2023-04-06T16:43:09.273Z,100595.91
2023-04-06T16:48:06.333Z,100644.63
2023-04-06T16:53:06.199Z,100616.06
2023-04-06T16:58:09.814Z,100652.94
2023-04-06T17:03:07.169Z,100713.88
2023-04-06T17:08:04.434Z,100701.59
2023-04-06T17:13:37.707Z,100725.03
2023-04-06T17:18:34.642Z,100675.06
2023-04-06T17:23:31.908Z,100725.00
2023-04-06T17:28:31.016Z,100731.66
2023-04-06T17:33:32.999Z,100726.53
2023-04-06T17:38:31.137Z,100693.75
2023-04-06T17:43:28.185Z,100741.00
2023-04-06T17:48:34.874Z,100763.59
2023-04-06T17:53:33.815Z,100753.78
2023-04-06T17:58:31.079Z,100760.31
2023-04-06T18:03:30.612Z,100788.81
2023-04-06T18:08:35.771Z,100774.94
2023-04-06T18:13:32.950Z,100724.50
2023-04-06T18:18:29.926Z,100722.47
2023-04-06T18:23:26.841Z,100747.00
2023-04-06T18:28:24.860Z,100792.66
2023-04-06T18:33:23.366Z,100853.78
2023-04-06T18:38:21.015Z,100857.84
2023-04-06T18:43:18.002Z,100763.78
2023-04-06T18:48:25.542Z,100763.03
2023-04-06T18:53:22.683Z,100798.38
2023-04-06T18:58:26.387Z,100853.09
2023-04-06T19:03:24.094Z,100876.25
2023-04-06T19:08:23.095Z,100812.28
2023-04-06T19:13:20.133Z,100885.38
2023-04-06T19:18:19.110Z,100829.59
2023-04-06T19:23:24.941Z,100843.50
2023-04-06T19:28:22.070Z,100793.72
2023-04-06T19:33:19.031Z,100864.00
2023-04-06T19:38:17.205Z,100819.34
2023-04-06T19:43:14.292Z,100892.44
2023-04-06T19:48:11.548Z,100863.75
2023-04-06T19:53:08.991Z,100892.41
2023-04-06T19:58:06.956Z,100919.06
2023-04-06T20:03:04.282Z,100867.78
2023-04-06T20:08:01.500Z,100818.88
2023-04-06T20:12:59.956Z,100804.00
2023-04-06T20:18:12.497Z,100866.75
2023-04-06T20:23:12.142Z,100811.78
2023-04-06T20:28:09.868Z,100914.31
2023-04-06T20:33:07.888Z,100911.56
2023-04-06T20:38:04.978Z,100918.28
2023-04-06T20:43:05.142Z,100960.88
2023-04-06T20:48:02.520Z,100939.28
2023-04-06T20:53:02.863Z,100964.59
2023-04-06T20:57:59.931Z,100937.03
2023-04-06T21:02:56.933Z,100968.38
2023-04-06T21:07:53.860Z,100982.81
2023-04-06T21:12:51.403Z,100921.78
2023-04-06T21:17:48.376Z,100985.13
2023-04-06T21:22:45.477Z,100978.19
2023-04-06T21:27:43.955Z,100985.22
2023-04-06T21:32:41.684Z,100962.19
2023-04-06T21:37:40.333Z,100979.59
2023-04-06T21:42:40.053Z,100985.47
2023-04-06T21:47:39.379Z,100986.41
2023-04-06T21:52:37.101Z,100926.81
2023-04-06T21:57:34.082Z,100962.59
2023-04-06T22:02:31.634Z,100936.91
2023-04-06T22:07:28.767Z,100986.06
2023-04-06T22:12:26.389Z,100979.00
2023-04-06T22:17:23.387Z,100962.13
2023-04-06T22:22:20.373Z,100936.47
2023-04-06T22:27:19.723Z,100986.28
2023-04-06T22:32:17.293Z,100976.88
2023-04-06T22:37:14.215Z,100971.84
2023-04-06T22:42:11.130Z,100977.59
2023-04-06T22:47:08.033Z,100967.69
2023-04-06T22:52:05.725Z,100952.63
2023-04-06T22:57:02.588Z,100957.75
2023-04-06T23:01:59.657Z,100964.91
2023-04-06T23:07:02.781Z,100916.03
2023-04-06T23:12:00.527Z,100938.28
2023-04-06T23:16:57.780Z,100949.63
2023-04-06T23:21:55.727Z,100854.41
2023-04-06T23:26:52.554Z,100948.16
2023-04-06T23:31:50.398Z,100898.13
2023-04-06T23:36:47.508Z,100897.16
2023-04-06T23:41:44.443Z,100904.84
2023-04-06T23:46:41.448Z,100885.41
2023-04-06T23:51:39.216Z,100889.88
2023-04-06T23:56:36.438Z,100880.56
